sensor_id;sensor_type;location;lat;lon;timestamp;temperature;humidity
14798;DHT22;7490;63.708;20.368;2023-04-03T00:01:02;-6.00;53.20
14798;DHT22;7490;63.708;20.368;2023-04-03T00:03:28;-6.00;53.30
14798;DHT22;7490;63.708;20.368;2023-04-03T00:05:54;-6.00;53.30
14798;DHT22;7490;63.708;20.368;2023-04-03T00:08:20;-6.10;53.20
14798;DHT22;7490;63.708;20.368;2023-04-03T00:10:46;-6.10;53.20
14798;DHT22;7490;63.708;20.368;2023-04-03T00:13:12;-6.10;53.30
14798;DHT22;7490;63.708;20.368;2023-04-03T00:15:38;-6.20;53.20
14798;DHT22;7490;63.708;20.368;2023-04-03T00:18:05;-6.20;53.30
14798;DHT22;7490;63.708;20.368;2023-04-03T00:20:30;-6.20;53.40
14798;DHT22;7490;63.708;20.368;2023-04-03T00:22:57;-6.20;53.40
14798;DHT22;7490;63.708;20.368;2023-04-03T00:25:22;-6.30;53.40
14798;DHT22;7490;63.708;20.368;2023-04-03T00:27:49;-6.30;53.40
14798;DHT22;7490;63.708;20.368;2023-04-03T00:30:17;-6.30;53.40
14798;DHT22;7490;63.708;20.368;2023-04-03T00:32:43;-6.40;53.40
14798;DHT22;7490;63.708;20.368;2023-04-03T00:35:09;-6.40;53.40
14798;DHT22;7490;63.708;20.368;2023-04-03T00:37:35;-6.40;53.40
14798;DHT22;7490;63.708;20.368;2023-04-03T00:40:01;-6.50;53.40
14798;DHT22;7490;63.708;20.368;2023-04-03T00:42:26;-6.40;53.50
14798;DHT22;7490;63.708;20.368;2023-04-03T00:47:21;-6.50;53.60
14798;DHT22;7490;63.708;20.368;2023-04-03T00:49:49;-6.50;53.70
14798;DHT22;7490;63.708;20.368;2023-04-03T00:52:17;-6.60;53.70
14798;DHT22;7490;63.708;20.368;2023-04-03T00:54:46;-6.60;53.70
14798;DHT22;7490;63.708;20.368;2023-04-03T00:57:13;-6.60;53.90
14798;DHT22;7490;63.708;20.368;2023-04-03T00:59:43;-6.60;54.10
14798;DHT22;7490;63.708;20.368;2023-04-03T01:02:11;-6.50;54.10
14798;DHT22;7490;63.708;20.368;2023-04-03T01:04:39;-6.50;53.90
14798;DHT22;7490;63.708;20.368;2023-04-03T01:07:11;-6.60;53.90
14798;DHT22;7490;63.708;20.368;2023-04-03T01:09:38;-6.50;54.00
14798;DHT22;7490;63.708;20.368;2023-04-03T01:12:24;-6.60;53.90
14798;DHT22;7490;63.708;20.368;2023-04-03T01:15:05;-6.60;54.00
14798;DHT22;7490;63.708;20.368;2023-04-03T01:17:43;-6.60;53.90
14798;DHT22;7490;63.708;20.368;2023-04-03T01:20:36;-6.70;53.90
14798;DHT22;7490;63.708;20.368;2023-04-03T01:28:07;-6.70;53.90
14798;DHT22;7490;63.708;20.368;2023-04-03T01:33:27;-6.70;54.10
14798;DHT22;7490;63.708;20.368;2023-04-03T01:35:53;-6.70;54.10
14798;DHT22;7490;63.708;20.368;2023-04-03T01:38:19;-6.70;54.00
14798;DHT22;7490;63.708;20.368;2023-04-03T01:40:45;-6.70;54.00
14798;DHT22;7490;63.708;20.368;2023-04-03T01:43:11;-6.70;54.00
14798;DHT22;7490;63.708;20.368;2023-04-03T01:45:37;-6.70;54.10
14798;DHT22;7490;63.708;20.368;2023-04-03T01:48:03;-6.70;54.10
14798;DHT22;7490;63.708;20.368;2023-04-03T01:50:29;-6.70;54.30
14798;DHT22;7490;63.708;20.368;2023-04-03T01:52:54;-6.70;54.40
14798;DHT22;7490;63.708;20.368;2023-04-03T01:55:20;-6.70;54.50
14798;DHT22;7490;63.708;20.368;2023-04-03T01:57:46;-6.70;54.50
14798;DHT22;7490;63.708;20.368;2023-04-03T02:00:12;-6.60;54.60
14798;DHT22;7490;63.708;20.368;2023-04-03T02:02:38;-6.60;54.60
14798;DHT22;7490;63.708;20.368;2023-04-03T02:05:03;-6.60;54.50
14798;DHT22;7490;63.708;20.368;2023-04-03T02:07:29;-6.50;54.60
14798;DHT22;7490;63.708;20.368;2023-04-03T02:09:55;-6.60;54.60
14798;DHT22;7490;63.708;20.368;2023-04-03T02:12:21;-6.50;54.60
14798;DHT22;7490;63.708;20.368;2023-04-03T02:14:46;-6.50;54.60
14798;DHT22;7490;63.708;20.368;2023-04-03T02:17:12;-6.50;54.60
14798;DHT22;7490;63.708;20.368;2023-04-03T02:19:38;-6.50;54.60
14798;DHT22;7490;63.708;20.368;2023-04-03T02:22:04;-6.50;54.60
14798;DHT22;7490;63.708;20.368;2023-04-03T02:24:30;-6.50;54.50
14798;DHT22;7490;63.708;20.368;2023-04-03T02:26:56;-6.60;54.40
14798;DHT22;7490;63.708;20.368;2023-04-03T02:29:22;-6.60;54.40
14798;DHT22;7490;63.708;20.368;2023-04-03T02:31:48;-6.60;54.50
14798;DHT22;7490;63.708;20.368;2023-04-03T02:34:14;-6.60;54.50
14798;DHT22;7490;63.708;20.368;2023-04-03T02:36:40;-6.60;54.40
14798;DHT22;7490;63.708;20.368;2023-04-03T02:39:06;-6.70;54.50
14798;DHT22;7490;63.708;20.368;2023-04-03T02:41:31;-6.70;55.10
14798;DHT22;7490;63.708;20.368;2023-04-03T02:44:05;-6.70;54.50
14798;DHT22;7490;63.708;20.368;2023-04-03T02:46:31;-6.70;54.50
14798;DHT22;7490;63.708;20.368;2023-04-03T02:48:56;-6.70;54.40
14798;DHT22;7490;63.708;20.368;2023-04-03T02:51:22;-6.80;54.30
14798;DHT22;7490;63.708;20.368;2023-04-03T02:53:51;-6.80;54.30
14798;DHT22;7490;63.708;20.368;2023-04-03T02:56:17;-6.80;54.30
14798;DHT22;7490;63.708;20.368;2023-04-03T02:58:44;-6.90;54.30
14798;DHT22;7490;63.708;20.368;2023-04-03T03:01:10;-6.90;54.30
14798;DHT22;7490;63.708;20.368;2023-04-03T03:03:35;-6.90;54.20
14798;DHT22;7490;63.708;20.368;2023-04-03T03:06:06;-6.90;54.30
14798;DHT22;7490;63.708;20.368;2023-04-03T03:08:33;-7.00;54.40
14798;DHT22;7490;63.708;20.368;2023-04-03T03:10:59;-7.00;54.30
14798;DHT22;7490;63.708;20.368;2023-04-03T03:13:24;-7.10;54.30
14798;DHT22;7490;63.708;20.368;2023-04-03T03:15:50;-7.10;54.30
14798;DHT22;7490;63.708;20.368;2023-04-03T03:18:16;-7.10;54.20
14798;DHT22;7490;63.708;20.368;2023-04-03T03:20:42;-7.20;54.30
14798;DHT22;7490;63.708;20.368;2023-04-03T03:23:08;-7.20;54.40
14798;DHT22;7490;63.708;20.368;2023-04-03T03:25:37;-7.20;54.50
14798;DHT22;7490;63.708;20.368;2023-04-03T03:28:03;-7.20;54.50
14798;DHT22;7490;63.708;20.368;2023-04-03T03:30:28;-7.30;54.50
14798;DHT22;7490;63.708;20.368;2023-04-03T03:32:54;-7.30;54.50
14798;DHT22;7490;63.708;20.368;2023-04-03T03:35:19;-7.30;54.40
14798;DHT22;7490;63.708;20.368;2023-04-03T03:37:45;-7.30;54.40
14798;DHT22;7490;63.708;20.368;2023-04-03T03:40:11;-7.40;54.40
14798;DHT22;7490;63.708;20.368;2023-04-03T03:42:38;-7.40;54.40
14798;DHT22;7490;63.708;20.368;2023-04-03T03:45:04;-7.40;54.30
14798;DHT22;7490;63.708;20.368;2023-04-03T03:47:30;-7.40;54.40
14798;DHT22;7490;63.708;20.368;2023-04-03T03:49:55;-7.50;54.30
14798;DHT22;7490;63.708;20.368;2023-04-03T03:52:21;-7.50;54.30
14798;DHT22;7490;63.708;20.368;2023-04-03T03:54:47;-7.50;54.50
14798;DHT22;7490;63.708;20.368;2023-04-03T03:57:12;-7.50;54.50
14798;DHT22;7490;63.708;20.368;2023-04-03T03:59:38;-7.50;54.50
14798;DHT22;7490;63.708;20.368;2023-04-03T04:02:05;-7.50;54.50
14798;DHT22;7490;63.708;20.368;2023-04-03T04:04:31;-7.50;54.50
14798;DHT22;7490;63.708;20.368;2023-04-03T04:06:56;-7.50;54.60
14798;DHT22;7490;63.708;20.368;2023-04-03T04:09:22;-7.50;54.60
14798;DHT22;7490;63.708;20.368;2023-04-03T04:11:48;-7.50;54.50
14798;DHT22;7490;63.708;20.368;2023-04-03T04:14:13;-7.50;54.60
14798;DHT22;7490;63.708;20.368;2023-04-03T04:16:39;-7.50;54.70
14798;DHT22;7490;63.708;20.368;2023-04-03T04:19:05;-7.40;54.80
14798;DHT22;7490;63.708;20.368;2023-04-03T04:21:30;-7.40;54.90
14798;DHT22;7490;63.708;20.368;2023-04-03T04:23:56;-7.30;55.10
14798;DHT22;7490;63.708;20.368;2023-04-03T04:26:22;-7.30;55.20
14798;DHT22;7490;63.708;20.368;2023-04-03T04:28:47;-7.20;55.30
14798;DHT22;7490;63.708;20.368;2023-04-03T04:31:13;-7.20;55.40
14798;DHT22;7490;63.708;20.368;2023-04-03T04:33:38;-6.90;56.10
14798;DHT22;7490;63.708;20.368;2023-04-03T04:36:04;-6.20;57.10
14798;DHT22;7490;63.708;20.368;2023-04-03T04:38:30;-5.40;57.60
14798;DHT22;7490;63.708;20.368;2023-04-03T04:40:55;-4.40;57.70
14798;DHT22;7490;63.708;20.368;2023-04-03T04:43:21;-3.30;57.30
14798;DHT22;7490;63.708;20.368;2023-04-03T04:45:47;-2.40;56.50
14798;DHT22;7490;63.708;20.368;2023-04-03T04:48:12;-1.50;55.90
14798;DHT22;7490;63.708;20.368;2023-04-03T04:50:38;-0.60;55.30
14798;DHT22;7490;63.708;20.368;2023-04-03T04:53:04;0.30;54.80
14798;DHT22;7490;63.708;20.368;2023-04-03T04:55:29;1.10;54.00
14798;DHT22;7490;63.708;20.368;2023-04-03T04:57:55;1.80;53.20
14798;DHT22;7490;63.708;20.368;2023-04-03T05:00:21;2.50;52.60
14798;DHT22;7490;63.708;20.368;2023-04-03T05:02:47;3.20;51.90
14798;DHT22;7490;63.708;20.368;2023-04-03T05:05:12;3.80;51.30
14798;DHT22;7490;63.708;20.368;2023-04-03T05:07:38;4.40;50.50
14798;DHT22;7490;63.708;20.368;2023-04-03T05:10:04;4.90;49.90
14798;DHT22;7490;63.708;20.368;2023-04-03T05:12:31;5.50;49.30
14798;DHT22;7490;63.708;20.368;2023-04-03T05:14:56;6.00;48.60
14798;DHT22;7490;63.708;20.368;2023-04-03T05:17:22;6.50;47.90
14798;DHT22;7490;63.708;20.368;2023-04-03T05:19:48;6.90;47.20
14798;DHT22;7490;63.708;20.368;2023-04-03T05:22:13;7.40;46.50
14798;DHT22;7490;63.708;20.368;2023-04-03T05:24:40;7.60;45.60
14798;DHT22;7490;63.708;20.368;2023-04-03T05:27:06;8.00;45.10
14798;DHT22;7490;63.708;20.368;2023-04-03T05:29:31;8.40;44.50
14798;DHT22;7490;63.708;20.368;2023-04-03T05:31:57;8.80;44.00
14798;DHT22;7490;63.708;20.368;2023-04-03T05:34:23;9.20;43.30
14798;DHT22;7490;63.708;20.368;2023-04-03T05:36:48;9.60;42.70
14798;DHT22;7490;63.708;20.368;2023-04-03T05:39:14;10.10;42.10
14798;DHT22;7490;63.708;20.368;2023-04-03T05:41:40;10.60;41.40
14798;DHT22;7490;63.708;20.368;2023-04-03T05:44:05;11.10;40.50
14798;DHT22;7490;63.708;20.368;2023-04-03T05:46:31;11.00;38.80
14798;DHT22;7490;63.708;20.368;2023-04-03T05:48:57;10.30;38.10
14798;DHT22;7490;63.708;20.368;2023-04-03T05:51:25;9.70;38.50
14798;DHT22;7490;63.708;20.368;2023-04-03T05:53:59;9.30;39.10
14798;DHT22;7490;63.708;20.368;2023-04-03T05:56:26;9.70;39.90
14798;DHT22;7490;63.708;20.368;2023-04-03T05:58:51;10.50;39.80
14798;DHT22;7490;63.708;20.368;2023-04-03T06:01:17;11.30;39.00
14798;DHT22;7490;63.708;20.368;2023-04-03T06:03:43;11.90;37.80
14798;DHT22;7490;63.708;20.368;2023-04-03T06:06:13;12.30;37.00
14798;DHT22;7490;63.708;20.368;2023-04-03T06:08:39;12.40;36.50
14798;DHT22;7490;63.708;20.368;2023-04-03T06:11:05;12.60;36.50
14798;DHT22;7490;63.708;20.368;2023-04-03T06:13:31;13.00;36.40
14798;DHT22;7490;63.708;20.368;2023-04-03T06:15:56;13.40;35.60
14798;DHT22;7490;63.708;20.368;2023-04-03T06:18:22;13.70;35.00
14798;DHT22;7490;63.708;20.368;2023-04-03T06:20:48;13.60;34.00
14798;DHT22;7490;63.708;20.368;2023-04-03T06:23:13;13.30;33.70
14798;DHT22;7490;63.708;20.368;2023-04-03T06:25:39;13.10;33.80
14798;DHT22;7490;63.708;20.368;2023-04-03T06:28:05;13.10;34.00
14798;DHT22;7490;63.708;20.368;2023-04-03T06:30:34;13.30;33.90
14798;DHT22;7490;63.708;20.368;2023-04-03T06:33:00;13.80;33.70
14798;DHT22;7490;63.708;20.368;2023-04-03T06:35:26;14.20;32.90
14798;DHT22;7490;63.708;20.368;2023-04-03T06:37:53;14.60;32.50
14798;DHT22;7490;63.708;20.368;2023-04-03T06:40:23;15.00;32.10
14798;DHT22;7490;63.708;20.368;2023-04-03T06:42:49;15.50;31.70
14798;DHT22;7490;63.708;20.368;2023-04-03T06:45:15;16.10;31.60
14798;DHT22;7490;63.708;20.368;2023-04-03T06:47:41;16.90;30.90
14798;DHT22;7490;63.708;20.368;2023-04-03T06:50:07;17.30;30.00
14798;DHT22;7490;63.708;20.368;2023-04-03T06:52:34;17.60;29.60
14798;DHT22;7490;63.708;20.368;2023-04-03T06:55:00;18.00;29.60
14798;DHT22;7490;63.708;20.368;2023-04-03T06:57:26;18.50;29.30
14798;DHT22;7490;63.708;20.368;2023-04-03T06:59:51;19.00;28.90
14798;DHT22;7490;63.708;20.368;2023-04-03T07:02:17;19.30;28.60
14798;DHT22;7490;63.708;20.368;2023-04-03T07:04:43;19.80;28.20
14798;DHT22;7490;63.708;20.368;2023-04-03T07:07:08;20.20;27.80
14798;DHT22;7490;63.708;20.368;2023-04-03T07:09:34;20.60;27.60
14798;DHT22;7490;63.708;20.368;2023-04-03T07:11:59;20.90;27.30
14798;DHT22;7490;63.708;20.368;2023-04-03T07:14:25;21.10;26.90
14798;DHT22;7490;63.708;20.368;2023-04-03T07:16:51;21.40;26.50
14798;DHT22;7490;63.708;20.368;2023-04-03T07:19:17;21.50;26.30
14798;DHT22;7490;63.708;20.368;2023-04-03T07:21:44;21.60;26.00
14798;DHT22;7490;63.708;20.368;2023-04-03T07:24:10;21.70;25.80
14798;DHT22;7490;63.708;20.368;2023-04-03T07:26:36;21.80;25.60
14798;DHT22;7490;63.708;20.368;2023-04-03T07:29:02;21.90;25.30
14798;DHT22;7490;63.708;20.368;2023-04-03T07:31:28;22.00;23.40
14798;DHT22;7490;63.708;20.368;2023-04-03T07:33:53;22.30;24.10
14798;DHT22;7490;63.708;20.368;2023-04-03T07:36:21;22.80;24.20
14798;DHT22;7490;63.708;20.368;2023-04-03T07:38:47;23.30;24.10
14798;DHT22;7490;63.708;20.368;2023-04-03T07:41:15;23.80;23.80
14798;DHT22;7490;63.708;20.368;2023-04-03T07:43:43;24.00;23.30
14798;DHT22;7490;63.708;20.368;2023-04-03T07:46:09;24.10;23.30
14798;DHT22;7490;63.708;20.368;2023-04-03T07:48:35;24.10;23.10
14798;DHT22;7490;63.708;20.368;2023-04-03T07:51:02;24.00;22.90
14798;DHT22;7490;63.708;20.368;2023-04-03T07:53:28;23.80;22.80
14798;DHT22;7490;63.708;20.368;2023-04-03T07:55:54;23.70;22.80
14798;DHT22;7490;63.708;20.368;2023-04-03T07:58:21;23.70;22.80
14798;DHT22;7490;63.708;20.368;2023-04-03T08:00:47;23.70;22.70
14798;DHT22;7490;63.708;20.368;2023-04-03T08:03:14;23.60;22.50
14798;DHT22;7490;63.708;20.368;2023-04-03T08:05:43;23.50;22.60
14798;DHT22;7490;63.708;20.368;2023-04-03T08:08:10;23.60;22.70
14798;DHT22;7490;63.708;20.368;2023-04-03T08:10:37;23.90;22.70
14798;DHT22;7490;63.708;20.368;2023-04-03T08:13:03;24.00;22.50
14798;DHT22;7490;63.708;20.368;2023-04-03T08:15:30;24.20;22.50
14798;DHT22;7490;63.708;20.368;2023-04-03T08:17:57;24.50;22.40
14798;DHT22;7490;63.708;20.368;2023-04-03T08:20:23;24.90;22.20
14798;DHT22;7490;63.708;20.368;2023-04-03T08:22:49;25.40;21.80
14798;DHT22;7490;63.708;20.368;2023-04-03T08:25:15;25.60;21.40
14798;DHT22;7490;63.708;20.368;2023-04-03T08:27:43;25.60;21.30
14798;DHT22;7490;63.708;20.368;2023-04-03T08:30:09;25.80;21.20
14798;DHT22;7490;63.708;20.368;2023-04-03T08:32:35;26.00;20.90
14798;DHT22;7490;63.708;20.368;2023-04-03T08:35:02;26.20;20.80
14798;DHT22;7490;63.708;20.368;2023-04-03T08:37:27;26.40;20.70
14798;DHT22;7490;63.708;20.368;2023-04-03T08:39:53;26.60;20.50
14798;DHT22;7490;63.708;20.368;2023-04-03T08:42:23;26.70;20.50
14798;DHT22;7490;63.708;20.368;2023-04-03T08:45:15;26.80;20.30
14798;DHT22;7490;63.708;20.368;2023-04-03T08:50:29;26.60;20.00
14798;DHT22;7490;63.708;20.368;2023-04-03T08:52:58;26.50;20.10
14798;DHT22;7490;63.708;20.368;2023-04-03T08:55:43;26.40;20.10
14798;DHT22;7490;63.708;20.368;2023-04-03T08:58:19;26.40;19.80
14798;DHT22;7490;63.708;20.368;2023-04-03T09:00:49;26.20;19.90
14798;DHT22;7490;63.708;20.368;2023-04-03T09:03:20;25.90;19.80
14798;DHT22;7490;63.708;20.368;2023-04-03T09:10:44;24.90;20.20
14798;DHT22;7490;63.708;20.368;2023-04-03T09:16:27;24.90;20.10
14798;DHT22;7490;63.708;20.368;2023-04-03T09:19:02;24.70;20.20
14798;DHT22;7490;63.708;20.368;2023-04-03T09:21:37;24.60;20.20
14798;DHT22;7490;63.708;20.368;2023-04-03T09:24:05;24.40;20.20
14798;DHT22;7490;63.708;20.368;2023-04-03T09:26:53;24.30;20.30
14798;DHT22;7490;63.708;20.368;2023-04-03T09:29:22;23.90;20.30
14798;DHT22;7490;63.708;20.368;2023-04-03T09:31:52;23.60;21.10
14798;DHT22;7490;63.708;20.368;2023-04-03T09:36:57;23.40;20.80
14798;DHT22;7490;63.708;20.368;2023-04-03T09:39:26;23.50;20.90
14798;DHT22;7490;63.708;20.368;2023-04-03T09:41:58;23.60;20.80
14798;DHT22;7490;63.708;20.368;2023-04-03T09:44:30;23.60;20.70
14798;DHT22;7490;63.708;20.368;2023-04-03T09:46:57;23.30;20.60
14798;DHT22;7490;63.708;20.368;2023-04-03T09:49:23;22.60;20.90
14798;DHT22;7490;63.708;20.368;2023-04-03T09:51:48;21.90;21.30
14798;DHT22;7490;63.708;20.368;2023-04-03T09:54:31;21.30;21.70
14798;DHT22;7490;63.708;20.368;2023-04-03T09:57:06;21.00;21.90
14798;DHT22;7490;63.708;20.368;2023-04-03T09:59:32;20.90;22.10
14798;DHT22;7490;63.708;20.368;2023-04-03T10:02:22;21.00;22.10
14798;DHT22;7490;63.708;20.368;2023-04-03T10:04:49;21.10;21.90
14798;DHT22;7490;63.708;20.368;2023-04-03T10:07:35;21.30;22.00
14798;DHT22;7490;63.708;20.368;2023-04-03T10:12:40;21.40;21.80
14798;DHT22;7490;63.708;20.368;2023-04-03T10:15:14;21.30;22.00
14798;DHT22;7490;63.708;20.368;2023-04-03T10:37:17;20.30;23.10
14798;DHT22;7490;63.708;20.368;2023-04-03T10:45:29;19.50;23.80
14798;DHT22;7490;63.708;20.368;2023-04-03T10:48:14;19.40;24.00
14798;DHT22;7490;63.708;20.368;2023-04-03T10:56:21;19.00;24.70
14798;DHT22;7490;63.708;20.368;2023-04-03T10:59:35;18.70;24.80
14798;DHT22;7490;63.708;20.368;2023-04-03T11:04:55;17.90;25.50
14798;DHT22;7490;63.708;20.368;2023-04-03T11:07:27;17.70;25.70
14798;DHT22;7490;63.708;20.368;2023-04-03T11:10:10;17.70;26.00
14798;DHT22;7490;63.708;20.368;2023-04-03T11:12:43;17.50;26.00
14798;DHT22;7490;63.708;20.368;2023-04-03T11:15:15;17.50;26.30
14798;DHT22;7490;63.708;20.368;2023-04-03T11:17:55;17.40;26.40
14798;DHT22;7490;63.708;20.368;2023-04-03T11:20:31;17.20;26.50
14798;DHT22;7490;63.708;20.368;2023-04-03T11:23:06;16.90;26.60
14798;DHT22;7490;63.708;20.368;2023-04-03T11:25:36;16.40;26.60
14798;DHT22;7490;63.708;20.368;2023-04-03T11:28:05;15.30;26.80
14798;DHT22;7490;63.708;20.368;2023-04-03T11:30:39;14.20;27.80
14798;DHT22;7490;63.708;20.368;2023-04-03T11:36:03;11.80;30.10
14798;DHT22;7490;63.708;20.368;2023-04-03T11:38:35;10.90;31.10
14798;DHT22;7490;63.708;20.368;2023-04-03T11:41:03;10.20;32.30
14798;DHT22;7490;63.708;20.368;2023-04-03T11:43:31;9.70;33.20
14798;DHT22;7490;63.708;20.368;2023-04-03T11:46:03;9.10;34.00
14798;DHT22;7490;63.708;20.368;2023-04-03T11:53:39;7.90;35.50
14798;DHT22;7490;63.708;20.368;2023-04-03T12:04:15;7.20;37.40
14798;DHT22;7490;63.708;20.368;2023-04-03T12:07:13;7.20;37.30
14798;DHT22;7490;63.708;20.368;2023-04-03T12:12:29;6.90;37.60
14798;DHT22;7490;63.708;20.368;2023-04-03T12:14:55;6.90;38.40
14798;DHT22;7490;63.708;20.368;2023-04-03T12:17:26;6.90;38.40
14798;DHT22;7490;63.708;20.368;2023-04-03T12:19:52;6.90;38.60
14798;DHT22;7490;63.708;20.368;2023-04-03T12:22:20;6.90;38.70
14798;DHT22;7490;63.708;20.368;2023-04-03T12:24:51;6.90;39.00
14798;DHT22;7490;63.708;20.368;2023-04-03T12:27:38;6.90;39.40
14798;DHT22;7490;63.708;20.368;2023-04-03T12:35:25;6.90;39.80
14798;DHT22;7490;63.708;20.368;2023-04-03T12:46:37;6.70;40.10
14798;DHT22;7490;63.708;20.368;2023-04-03T12:51:57;6.60;40.10
14798;DHT22;7490;63.708;20.368;2023-04-03T12:54:36;6.50;40.10
14798;DHT22;7490;63.708;20.368;2023-04-03T12:59:35;6.40;40.50
14798;DHT22;7490;63.708;20.368;2023-04-03T13:02:02;6.30;40.60
14798;DHT22;7490;63.708;20.368;2023-04-03T13:04:30;6.30;40.80
14798;DHT22;7490;63.708;20.368;2023-04-03T13:06:56;6.20;40.90
14798;DHT22;7490;63.708;20.368;2023-04-03T13:09:30;6.20;41.20
14798;DHT22;7490;63.708;20.368;2023-04-03T13:14:23;6.20;41.60
14798;DHT22;7490;63.708;20.368;2023-04-03T13:16:54;6.10;41.70
14798;DHT22;7490;63.708;20.368;2023-04-03T13:19:23;6.00;41.70
14798;DHT22;7490;63.708;20.368;2023-04-03T13:21:50;5.90;41.90
14798;DHT22;7490;63.708;20.368;2023-04-03T13:24:21;5.80;42.10
14798;DHT22;7490;63.708;20.368;2023-04-03T13:26:47;5.70;42.20
14798;DHT22;7490;63.708;20.368;2023-04-03T13:29:27;5.70;42.40
14798;DHT22;7490;63.708;20.368;2023-04-03T13:31:54;5.70;42.40
14798;DHT22;7490;63.708;20.368;2023-04-03T13:34:23;5.60;42.40
14798;DHT22;7490;63.708;20.368;2023-04-03T13:41:50;5.30;42.90
14798;DHT22;7490;63.708;20.368;2023-04-03T13:49:37;5.10;43.70
14798;DHT22;7490;63.708;20.368;2023-04-03T13:52:22;5.10;43.80
14798;DHT22;7490;63.708;20.368;2023-04-03T13:54:53;5.00;44.00
14798;DHT22;7490;63.708;20.368;2023-04-03T13:57:20;5.00;43.90
14798;DHT22;7490;63.708;20.368;2023-04-03T13:59:46;5.10;44.10
14798;DHT22;7490;63.708;20.368;2023-04-03T14:02:29;5.00;44.20
14798;DHT22;7490;63.708;20.368;2023-04-03T14:04:57;5.00;44.40
14798;DHT22;7490;63.708;20.368;2023-04-03T14:07:26;5.00;44.50
14798;DHT22;7490;63.708;20.368;2023-04-03T14:09:52;5.00;44.70
14798;DHT22;7490;63.708;20.368;2023-04-03T14:12:25;5.00;44.50
14798;DHT22;7490;63.708;20.368;2023-04-03T14:14:52;4.80;44.60
14798;DHT22;7490;63.708;20.368;2023-04-03T14:17:20;4.90;44.90
14798;DHT22;7490;63.708;20.368;2023-04-03T14:19:48;4.70;45.00
14798;DHT22;7490;63.708;20.368;2023-04-03T14:22:29;4.70;45.10
14798;DHT22;7490;63.708;20.368;2023-04-03T14:24:56;4.70;45.40
14798;DHT22;7490;63.708;20.368;2023-04-03T14:27:24;4.60;45.20
14798;DHT22;7490;63.708;20.368;2023-04-03T14:29:52;4.60;45.20
14798;DHT22;7490;63.708;20.368;2023-04-03T14:32:19;4.60;45.40
14798;DHT22;7490;63.708;20.368;2023-04-03T14:34:46;4.50;45.40
14798;DHT22;7490;63.708;20.368;2023-04-03T14:37:15;4.40;45.50
14798;DHT22;7490;63.708;20.368;2023-04-03T14:39:41;4.60;45.90
14798;DHT22;7490;63.708;20.368;2023-04-03T14:42:16;4.60;46.20
14798;DHT22;7490;63.708;20.368;2023-04-03T14:44:42;4.30;46.20
14798;DHT22;7490;63.708;20.368;2023-04-03T14:47:13;4.30;46.10
14798;DHT22;7490;63.708;20.368;2023-04-03T14:49:39;4.20;46.10
14798;DHT22;7490;63.708;20.368;2023-04-03T14:52:06;4.20;46.00
14798;DHT22;7490;63.708;20.368;2023-04-03T14:54:32;4.20;46.00
14798;DHT22;7490;63.708;20.368;2023-04-03T14:56:59;4.10;45.90
14798;DHT22;7490;63.708;20.368;2023-04-03T14:59:26;4.10;46.00
14798;DHT22;7490;63.708;20.368;2023-04-03T15:01:53;4.10;46.10
14798;DHT22;7490;63.708;20.368;2023-04-03T15:04:20;4.00;45.90
14798;DHT22;7490;63.708;20.368;2023-04-03T15:06:47;4.00;45.90
14798;DHT22;7490;63.708;20.368;2023-04-03T15:09:24;3.90;46.10
14798;DHT22;7490;63.708;20.368;2023-04-03T15:11:51;3.90;46.20
14798;DHT22;7490;63.708;20.368;2023-04-03T15:14:17;3.90;46.20
14798;DHT22;7490;63.708;20.368;2023-04-03T15:16:43;3.90;46.30
14798;DHT22;7490;63.708;20.368;2023-04-03T15:19:10;3.80;46.20
14798;DHT22;7490;63.708;20.368;2023-04-03T15:21:36;3.80;46.10
14798;DHT22;7490;63.708;20.368;2023-04-03T15:24:01;3.80;46.20
14798;DHT22;7490;63.708;20.368;2023-04-03T15:26:27;3.80;46.40
14798;DHT22;7490;63.708;20.368;2023-04-03T15:28:53;3.70;46.50
14798;DHT22;7490;63.708;20.368;2023-04-03T15:31:19;3.80;46.70
14798;DHT22;7490;63.708;20.368;2023-04-03T15:33:44;3.60;46.70
14798;DHT22;7490;63.708;20.368;2023-04-03T15:36:10;3.60;46.80
14798;DHT22;7490;63.708;20.368;2023-04-03T15:38:36;3.50;47.00
14798;DHT22;7490;63.708;20.368;2023-04-03T15:41:03;3.50;47.30
14798;DHT22;7490;63.708;20.368;2023-04-03T15:43:30;3.40;47.40
14798;DHT22;7490;63.708;20.368;2023-04-03T15:45:59;3.40;47.70
14798;DHT22;7490;63.708;20.368;2023-04-03T15:48:26;3.30;47.70
14798;DHT22;7490;63.708;20.368;2023-04-03T15:50:52;3.30;47.70
14798;DHT22;7490;63.708;20.368;2023-04-03T15:53:18;3.30;47.80
14798;DHT22;7490;63.708;20.368;2023-04-03T15:55:44;3.20;48.00
14798;DHT22;7490;63.708;20.368;2023-04-03T15:58:10;3.30;48.20
14798;DHT22;7490;63.708;20.368;2023-04-03T16:00:36;3.30;48.20
14798;DHT22;7490;63.708;20.368;2023-04-03T16:03:10;3.10;48.30
14798;DHT22;7490;63.708;20.368;2023-04-03T16:05:37;3.00;48.60
14798;DHT22;7490;63.708;20.368;2023-04-03T16:08:04;3.30;48.90
14798;DHT22;7490;63.708;20.368;2023-04-03T16:10:30;2.90;48.90
14798;DHT22;7490;63.708;20.368;2023-04-03T16:12:56;2.90;49.30
14798;DHT22;7490;63.708;20.368;2023-04-03T16:15:22;2.80;49.50
14798;DHT22;7490;63.708;20.368;2023-04-03T16:17:49;2.80;49.70
14798;DHT22;7490;63.708;20.368;2023-04-03T16:20:16;2.70;49.90
14798;DHT22;7490;63.708;20.368;2023-04-03T16:22:42;2.70;50.20
14798;DHT22;7490;63.708;20.368;2023-04-03T16:25:09;2.70;50.40
14798;DHT22;7490;63.708;20.368;2023-04-03T16:27:36;2.60;50.50
14798;DHT22;7490;63.708;20.368;2023-04-03T16:30:02;2.70;50.70
14798;DHT22;7490;63.708;20.368;2023-04-03T16:32:29;2.50;50.80
14798;DHT22;7490;63.708;20.368;2023-04-03T16:34:56;2.50;51.00
14798;DHT22;7490;63.708;20.368;2023-04-03T16:37:22;2.40;51.10
14798;DHT22;7490;63.708;20.368;2023-04-03T16:39:48;2.40;51.20
14798;DHT22;7490;63.708;20.368;2023-04-03T16:42:14;2.30;51.20
14798;DHT22;7490;63.708;20.368;2023-04-03T16:44:40;2.30;51.40
14798;DHT22;7490;63.708;20.368;2023-04-03T16:47:06;2.50;51.60
14798;DHT22;7490;63.708;20.368;2023-04-03T16:49:33;2.20;51.60
14798;DHT22;7490;63.708;20.368;2023-04-03T16:52:03;2.20;51.70
14798;DHT22;7490;63.708;20.368;2023-04-03T16:54:29;2.10;52.00
14798;DHT22;7490;63.708;20.368;2023-04-03T16:56:55;2.10;52.10
14798;DHT22;7490;63.708;20.368;2023-04-03T16:59:21;2.10;52.20
14798;DHT22;7490;63.708;20.368;2023-04-03T17:01:47;2.00;52.30
14798;DHT22;7490;63.708;20.368;2023-04-03T17:04:13;2.00;52.50
14798;DHT22;7490;63.708;20.368;2023-04-03T17:06:38;2.10;52.70
14798;DHT22;7490;63.708;20.368;2023-04-03T17:09:06;1.90;52.80
14798;DHT22;7490;63.708;20.368;2023-04-03T17:11:31;1.90;52.90
14798;DHT22;7490;63.708;20.368;2023-04-03T17:13:57;1.80;52.90
14798;DHT22;7490;63.708;20.368;2023-04-03T17:16:24;1.80;53.20
14798;DHT22;7490;63.708;20.368;2023-04-03T17:18:50;2.00;53.50
14798;DHT22;7490;63.708;20.368;2023-04-03T17:21:17;1.80;53.60
14798;DHT22;7490;63.708;20.368;2023-04-03T17:23:44;1.70;53.70
14798;DHT22;7490;63.708;20.368;2023-04-03T17:26:11;1.60;53.70
14798;DHT22;7490;63.708;20.368;2023-04-03T17:28:37;1.60;53.80
14798;DHT22;7490;63.708;20.368;2023-04-03T17:31:05;1.60;53.80
14798;DHT22;7490;63.708;20.368;2023-04-03T17:33:31;1.60;53.80